createdAt,value
2023-02-11T00:00:41.329Z,23.02
2023-02-11T00:03:09.768Z,20.85
2023-02-11T00:05:37.986Z,24.05
2023-02-11T00:08:06.216Z,23.77
2023-02-11T00:10:34.275Z,24.67
2023-02-11T00:13:03.712Z,24.27
2023-02-11T00:17:59.644Z,24.35
2023-02-11T00:20:27.677Z,25.38
2023-02-11T00:22:55.780Z,25.67
2023-02-11T00:25:23.872Z,26.70
2023-02-11T00:27:51.908Z,28.20
2023-02-11T00:30:21.507Z,28.13
2023-02-11T00:32:49.563Z,29.50
2023-02-11T00:35:17.836Z,27.75
2023-02-11T00:37:45.910Z,26.45
2023-02-11T00:40:15.971Z,27.27
2023-02-11T00:42:44.058Z,26.67
2023-02-11T00:45:13.535Z,24.25
2023-02-11T00:47:42.951Z,25.10
2023-02-11T00:50:11.070Z,26.80
2023-02-11T00:52:39.116Z,25.05
2023-02-11T00:55:08.071Z,25.30
2023-02-11T00:57:36.169Z,23.20
2023-02-11T01:00:04.899Z,23.30
2023-02-11T01:02:33.048Z,18.80
2023-02-11T01:05:03.445Z,24.40
2023-02-11T01:07:32.289Z,25.27
2023-02-11T01:10:00.534Z,25.45
2023-02-11T01:12:28.607Z,25.65
2023-02-11T01:14:56.739Z,23.55
2023-02-11T01:17:24.771Z,25.42
2023-02-11T01:19:52.833Z,26.40
2023-02-11T01:22:24.266Z,28.27
2023-02-11T01:24:52.356Z,30.52
2023-02-11T01:27:20.408Z,26.45
2023-02-11T01:29:48.452Z,30.45
2023-02-11T01:32:16.547Z,27.45
2023-02-11T01:34:44.650Z,28.65
2023-02-11T01:37:12.719Z,25.65
2023-02-11T01:39:42.139Z,26.25
2023-02-11T01:44:40.372Z,24.10
2023-02-11T01:47:08.664Z,23.83
2023-02-11T01:49:39.516Z,18.33
2023-02-11T01:52:13.176Z,25.15
2023-02-11T01:55:14.220Z,24.98
2023-02-11T01:57:46.525Z,24.42
2023-02-11T02:00:20.329Z,24.25
2023-02-11T02:03:02.037Z,24.90
2023-02-11T02:05:36.686Z,27.98
2023-02-11T02:08:11.926Z,27.25
2023-02-11T02:10:44.153Z,25.60
2023-02-11T02:13:12.659Z,27.88
2023-02-11T02:15:45.217Z,27.13
2023-02-11T02:18:29.976Z,26.63
2023-02-11T02:21:30.634Z,28.33
2023-02-11T02:24:20.112Z,27.00
2023-02-11T02:27:21.881Z,28.15
2023-02-11T02:30:50.091Z,27.73
2023-02-11T02:33:38.839Z,28.92
2023-02-11T02:36:19.289Z,28.85
2023-02-11T02:38:53.917Z,27.25
2023-02-11T02:41:25.451Z,27.70
2023-02-11T02:43:54.496Z,26.20
2023-02-11T02:46:24.453Z,26.30
2023-02-11T02:48:55.298Z,26.65
2023-02-11T02:51:58.450Z,26.02
2023-02-11T02:54:48.054Z,25.60
2023-02-11T02:57:30.562Z,27.48
2023-02-11T03:00:08.725Z,25.13
2023-02-11T03:02:46.103Z,29.50
2023-02-11T03:05:18.498Z,26.15
2023-02-11T03:07:53.400Z,27.90
2023-02-11T03:10:26.446Z,26.77
2023-02-11T03:12:56.146Z,27.90
2023-02-11T03:15:27.453Z,28.35
2023-02-11T03:17:59.711Z,25.85
2023-02-11T03:20:32.704Z,26.58
2023-02-11T03:23:08.522Z,26.88
2023-02-11T03:25:42.321Z,28.50
2023-02-11T03:28:17.197Z,29.08
2023-02-11T03:30:50.372Z,30.27
2023-02-11T03:33:25.164Z,27.60
2023-02-11T03:35:59.225Z,27.95
2023-02-11T03:38:32.642Z,28.77
2023-02-11T03:41:03.597Z,27.83
2023-02-11T03:43:35.634Z,30.17
2023-02-11T03:46:04.707Z,32.90
2023-02-11T03:48:37.053Z,29.98
2023-02-11T03:51:09.043Z,29.52
2023-02-11T03:53:39.621Z,28.40
2023-02-11T03:56:11.719Z,28.02
2023-02-11T03:58:39.822Z,26.73
2023-02-11T04:01:09.864Z,25.88
2023-02-11T04:03:38.091Z,29.48
2023-02-11T04:06:07.960Z,29.60
2023-02-11T04:08:36.308Z,30.08
2023-02-11T04:11:04.378Z,29.05
2023-02-11T04:13:32.487Z,29.10
2023-02-11T04:16:00.561Z,29.42
2023-02-11T04:18:28.687Z,27.48
2023-02-11T04:20:56.740Z,27.05
2023-02-11T04:23:26.229Z,28.02
2023-02-11T04:25:54.310Z,29.77
2023-02-11T04:28:22.434Z,27.70
2023-02-11T04:30:51.542Z,29.73
2023-02-11T04:33:19.649Z,28.88
2023-02-11T04:35:47.785Z,28.65
2023-02-11T04:38:15.971Z,27.85
2023-02-11T04:40:45.444Z,28.48
2023-02-11T04:43:13.534Z,29.27
2023-02-11T04:45:41.633Z,28.48
2023-02-11T04:48:09.765Z,28.35
2023-02-11T04:50:37.890Z,28.67
2023-02-11T04:53:05.963Z,28.50
2023-02-11T04:55:34.020Z,29.63
2023-02-11T04:58:03.444Z,27.67
2023-02-11T05:03:00.532Z,29.15
2023-02-11T05:05:28.629Z,26.73
2023-02-11T05:07:56.688Z,31.00
2023-02-11T05:10:24.760Z,29.63
2023-02-11T05:12:55.408Z,32.83
2023-02-11T05:15:25.350Z,31.63
2023-02-11T05:17:53.764Z,34.53
2023-02-11T05:20:21.892Z,22.97
2023-02-11T05:22:49.976Z,33.15
2023-02-11T05:25:18.561Z,34.20
2023-02-11T05:27:46.588Z,26.35
2023-02-11T05:30:15.131Z,35.97
2023-02-11T05:32:44.551Z,34.75
2023-02-11T05:37:40.902Z,30.52
2023-02-11T05:40:09.652Z,31.87
2023-02-11T05:42:37.717Z,33.67
2023-02-11T05:45:06.550Z,31.30
2023-02-11T05:47:34.638Z,33.05
2023-02-11T05:50:04.101Z,32.03
2023-02-11T05:55:00.299Z,31.23
2023-02-11T05:57:28.512Z,32.45
2023-02-11T05:59:56.569Z,31.95
2023-02-11T06:02:24.704Z,30.85
2023-02-11T06:04:52.833Z,29.50
2023-02-11T06:07:22.298Z,30.42
2023-02-11T06:12:18.216Z,29.23
2023-02-11T06:14:46.267Z,31.55
2023-02-11T06:17:15.710Z,28.60
2023-02-11T06:19:43.983Z,31.02
2023-02-11T06:22:12.399Z,30.23
2023-02-11T06:25:00.243Z,31.15
2023-02-11T06:27:29.297Z,23.60
2023-02-11T06:29:57.385Z,30.15
2023-02-11T06:32:42.843Z,29.05
2023-02-11T06:35:12.411Z,32.05
2023-02-11T06:37:40.948Z,31.15
2023-02-11T06:40:10.739Z,24.15
2023-02-11T06:42:39.567Z,34.70
2023-02-11T06:45:09.333Z,25.77
2023-02-11T06:47:37.622Z,35.85
2023-02-11T06:50:06.493Z,36.35
2023-02-11T06:52:34.552Z,26.85
2023-02-11T06:55:02.669Z,40.72
2023-02-11T06:57:33.324Z,42.70
2023-02-11T07:00:01.398Z,39.85
2023-02-11T07:02:29.494Z,39.38
2023-02-11T07:04:57.590Z,39.03
2023-02-11T07:07:25.635Z,38.00
2023-02-11T07:09:53.767Z,41.05
2023-02-11T07:12:21.851Z,40.63
2023-02-11T07:14:51.248Z,39.53
2023-02-11T07:19:47.140Z,36.88
2023-02-11T07:22:15.255Z,34.85
2023-02-11T07:24:43.512Z,35.17
2023-02-11T07:27:11.652Z,35.25
2023-02-11T07:29:39.750Z,39.90
2023-02-11T07:32:09.352Z,36.80
2023-02-11T07:34:37.555Z,38.50
2023-02-11T07:37:05.660Z,33.17
2023-02-11T07:39:33.828Z,32.65
2023-02-11T07:42:01.895Z,34.85
2023-02-11T07:44:30.017Z,33.00
2023-02-11T07:46:58.184Z,32.10
2023-02-11T07:49:27.825Z,31.60
2023-02-11T07:51:55.891Z,32.50
2023-02-11T07:54:23.937Z,30.33
2023-02-11T07:56:52.054Z,29.80
2023-02-11T07:59:20.115Z,30.08
2023-02-11T08:01:48.230Z,30.48
2023-02-11T08:04:16.332Z,32.55
2023-02-11T08:06:46.037Z,32.95
2023-02-11T08:09:16.917Z,34.60
2023-02-11T08:11:45.453Z,31.90
2023-02-11T08:14:13.602Z,22.25
2023-02-11T08:16:42.235Z,33.63
2023-02-11T08:19:14.010Z,30.02
2023-02-11T08:21:42.809Z,31.65
2023-02-11T08:24:12.645Z,37.22
2023-02-11T08:26:41.017Z,35.42
2023-02-11T08:29:11.174Z,34.05
2023-02-11T08:31:41.350Z,33.47
2023-02-11T08:34:11.497Z,29.25
2023-02-11T08:36:41.072Z,28.55
2023-02-11T08:41:51.132Z,28.35
2023-02-11T08:44:19.856Z,27.50
2023-02-11T08:46:48.497Z,27.85
2023-02-11T08:49:17.117Z,21.53
2023-02-11T08:51:45.769Z,28.35
2023-02-11T08:54:14.297Z,27.83
2023-02-11T08:56:42.565Z,27.97
2023-02-11T08:59:15.322Z,27.35
2023-02-11T09:01:44.142Z,27.92
2023-02-11T09:04:12.486Z,33.20
2023-02-11T09:06:40.791Z,30.98
2023-02-11T09:09:13.466Z,27.35
2023-02-11T09:11:42.901Z,28.15
2023-02-11T09:14:17.985Z,27.75
2023-02-11T09:16:46.240Z,26.52
2023-02-11T09:19:14.540Z,26.75
2023-02-11T09:21:42.631Z,26.35
2023-02-11T09:24:11.111Z,26.67
2023-02-11T09:26:39.330Z,26.83
2023-02-11T09:29:07.399Z,28.42
2023-02-11T09:31:36.977Z,27.05
2023-02-11T09:34:07.236Z,27.98
2023-02-11T09:36:38.408Z,23.45
2023-02-11T09:39:09.315Z,18.63
2023-02-11T09:41:50.272Z,17.17
2023-02-11T09:44:22.356Z,19.15
2023-02-11T09:46:57.783Z,18.75
2023-02-11T09:49:36.260Z,19.02
2023-02-11T09:52:07.140Z,19.80
2023-02-11T09:54:40.136Z,20.95
2023-02-11T09:57:22.957Z,17.77
2023-02-11T09:59:56.900Z,15.32
2023-02-11T10:02:32.349Z,10.98
2023-02-11T10:05:24.367Z,10.13
2023-02-11T10:08:02.309Z,10.48
2023-02-11T10:10:44.725Z,10.35
2023-02-11T10:13:42.560Z,9.43
2023-02-11T10:16:23.189Z,10.77
2023-02-11T10:19:16.808Z,10.20
2023-02-11T10:21:52.807Z,9.65
2023-02-11T10:24:21.704Z,10.30
2023-02-11T10:26:50.558Z,10.02
2023-02-11T10:29:31.804Z,11.00
2023-02-11T10:32:02.295Z,11.90
2023-02-11T10:34:31.791Z,11.60
2023-02-11T10:37:00.350Z,11.63
2023-02-11T10:39:29.299Z,9.75
2023-02-11T10:42:02.661Z,9.98
2023-02-11T10:44:33.688Z,11.90
2023-02-11T10:47:06.378Z,12.85
2023-02-11T10:49:39.307Z,14.43
2023-02-11T10:52:23.748Z,15.57
2023-02-11T10:54:59.991Z,12.27
2023-02-11T10:57:32.494Z,11.80
2023-02-11T11:00:05.719Z,10.68
2023-02-11T11:02:38.787Z,9.68
2023-02-11T11:05:17.519Z,8.68
2023-02-11T11:07:54.617Z,7.95
2023-02-11T11:10:37.481Z,8.95
2023-02-11T11:13:05.605Z,8.52
2023-02-11T11:15:33.753Z,8.95
2023-02-11T11:18:23.656Z,8.32
2023-02-11T11:21:00.649Z,7.97
2023-02-11T11:23:30.860Z,8.18
2023-02-11T11:26:05.341Z,7.97
2023-02-11T11:28:38.938Z,8.95
2023-02-11T11:31:13.915Z,9.48
2023-02-11T11:33:44.583Z,8.75
2023-02-11T11:36:17.540Z,8.30
2023-02-11T11:38:50.268Z,9.60
2023-02-11T11:41:25.692Z,9.05
2023-02-11T11:44:09.435Z,9.85
2023-02-11T11:46:40.073Z,10.60
2023-02-11T11:49:18.810Z,10.90
2023-02-11T11:51:54.436Z,13.82
2023-02-11T11:54:25.087Z,10.60
2023-02-11T11:57:00.343Z,13.18
2023-02-11T11:59:30.200Z,10.13
2023-02-11T12:02:19.217Z,9.82
2023-02-11T12:05:03.427Z,9.77
2023-02-11T12:07:48.648Z,10.88
2023-02-11T12:10:40.664Z,11.77
2023-02-11T12:13:26.498Z,11.82
2023-02-11T12:16:05.425Z,13.27
2023-02-11T12:18:53.095Z,10.93
2023-02-11T12:21:32.392Z,9.70
2023-02-11T12:24:12.209Z,8.57
2023-02-11T12:26:46.962Z,8.63
2023-02-11T12:29:25.115Z,7.93
2023-02-11T12:32:03.084Z,8.32
2023-02-11T12:35:04.006Z,8.32
2023-02-11T12:37:45.373Z,7.30
2023-02-11T12:40:23.750Z,6.63
2023-02-11T12:43:17.061Z,7.20
2023-02-11T12:46:01.997Z,7.63
2023-02-11T12:48:58.953Z,6.75
2023-02-11T12:51:44.821Z,7.20
2023-02-11T12:54:28.350Z,8.45
2023-02-11T12:57:04.448Z,8.50
2023-02-11T12:59:44.184Z,8.35
2023-02-11T13:02:25.600Z,8.40
2023-02-11T13:04:57.824Z,9.50
2023-02-11T13:07:31.068Z,9.85
2023-02-11T13:10:07.595Z,9.95
2023-02-11T13:12:56.324Z,9.27
2023-02-11T13:15:25.916Z,10.73
2023-02-11T13:20:39.379Z,10.18
2023-02-11T13:23:17.170Z,11.32
2023-02-11T13:25:51.864Z,11.57
2023-02-11T13:28:36.306Z,11.50
2023-02-11T13:31:07.663Z,12.15
2023-02-11T13:33:37.490Z,11.55
2023-02-11T13:36:30.222Z,11.85
2023-02-11T13:39:01.420Z,12.25
2023-02-11T13:41:34.695Z,11.85
2023-02-11T13:44:22.256Z,12.05
2023-02-11T13:47:02.248Z,12.65
2023-02-11T13:49:37.495Z,11.35
2023-02-11T13:52:07.671Z,13.68
2023-02-11T13:54:39.180Z,13.10
2023-02-11T13:57:32.260Z,13.02
2023-02-11T14:00:09.533Z,13.70
2023-02-11T14:02:56.223Z,12.90
2023-02-11T14:05:45.436Z,13.80
2023-02-11T14:08:38.893Z,13.18
2023-02-11T14:11:27.390Z,12.93
2023-02-11T14:14:21.783Z,12.73
2023-02-11T14:17:31.785Z,13.25
2023-02-11T14:20:00.670Z,12.40
2023-02-11T14:22:31.629Z,13.20
2023-02-11T14:25:01.811Z,13.07
2023-02-11T14:27:35.451Z,12.50
2023-02-11T14:30:27.968Z,13.50
2023-02-11T14:33:14.390Z,13.93
2023-02-11T14:35:52.704Z,13.25
2023-02-11T14:38:34.055Z,14.32
2023-02-11T14:41:08.417Z,15.43
2023-02-11T14:43:39.794Z,14.15
2023-02-11T14:46:10.808Z,16.63
2023-02-11T14:48:46.790Z,17.05
2023-02-11T14:51:17.563Z,17.27
2023-02-11T14:53:49.045Z,15.68
2023-02-11T14:56:22.339Z,17.27
2023-02-11T14:58:51.900Z,16.63
2023-02-11T15:06:33.133Z,16.52
2023-02-11T15:09:04.903Z,17.52
2023-02-11T15:11:35.785Z,16.98
2023-02-11T15:14:10.699Z,17.70
2023-02-11T15:16:43.904Z,18.05
2023-02-11T15:19:26.727Z,18.48
2023-02-11T15:21:56.687Z,17.52
2023-02-11T15:24:27.443Z,18.15
2023-02-11T15:27:00.186Z,19.23
2023-02-11T15:29:35.532Z,19.65
2023-02-11T15:32:16.797Z,18.38
2023-02-11T15:34:48.112Z,18.27
2023-02-11T15:37:20.966Z,17.20
2023-02-11T15:39:49.506Z,16.27
2023-02-11T15:42:26.322Z,16.40
2023-02-11T15:45:12.825Z,14.90
2023-02-11T15:47:43.281Z,15.60
2023-02-11T15:50:23.075Z,16.30
2023-02-11T15:52:51.785Z,15.48
2023-02-11T15:55:21.056Z,15.45
2023-02-11T15:57:53.542Z,16.95
2023-02-11T16:00:24.556Z,17.15
2023-02-11T16:02:53.489Z,18.00
2023-02-11T16:05:34.850Z,16.17
2023-02-11T16:08:14.204Z,15.95
2023-02-11T16:10:58.289Z,18.25
2023-02-11T16:13:28.137Z,16.80
2023-02-11T16:15:57.848Z,17.33
2023-02-11T16:18:38.162Z,15.55
2023-02-11T16:21:15.736Z,15.90
2023-02-11T16:23:50.192Z,17.58
2023-02-11T16:26:26.105Z,16.65
2023-02-11T16:28:54.828Z,17.45
2023-02-11T16:31:23.126Z,15.57
2023-02-11T16:33:51.225Z,15.88
2023-02-11T16:36:20.647Z,15.00
2023-02-11T16:41:16.915Z,13.77
2023-02-11T16:43:45.035Z,13.60
2023-02-11T16:46:15.969Z,14.50
2023-02-11T16:48:44.463Z,15.75
2023-02-11T16:51:13.177Z,15.32
2023-02-11T16:53:42.654Z,15.05
2023-02-11T16:56:16.681Z,14.23
2023-02-11T16:58:45.253Z,14.30
2023-02-11T17:01:14.309Z,15.57
2023-02-11T17:03:43.665Z,13.75
2023-02-11T17:06:12.618Z,15.10
2023-02-11T17:08:42.103Z,16.63
2023-02-11T17:11:10.178Z,15.60
2023-02-11T17:13:39.433Z,15.57
2023-02-11T17:16:12.328Z,16.67
2023-02-11T17:18:40.396Z,16.23
2023-02-11T17:21:08.786Z,17.17
2023-02-11T17:23:37.423Z,17.10
2023-02-11T17:26:07.406Z,17.23
2023-02-11T17:28:36.000Z,17.55
2023-02-11T17:31:09.305Z,12.40
2023-02-11T17:33:38.794Z,17.90
2023-02-11T17:36:07.849Z,18.60
2023-02-11T17:38:36.691Z,16.98
2023-02-11T17:41:06.789Z,16.30
2023-02-11T17:43:34.920Z,19.08
2023-02-11T17:46:06.210Z,17.67
2023-02-11T17:48:34.378Z,18.23
2023-02-11T17:51:02.469Z,18.75
2023-02-11T17:53:30.754Z,19.77
2023-02-11T17:55:58.835Z,20.02
2023-02-11T17:58:28.272Z,25.48
2023-02-11T18:00:59.421Z,24.05
2023-02-11T18:03:27.606Z,20.92
2023-02-11T18:06:00.020Z,21.30
2023-02-11T18:08:28.127Z,21.23
2023-02-11T18:10:56.338Z,19.27
2023-02-11T18:13:24.400Z,19.05
2023-02-11T18:15:54.013Z,17.10
2023-02-11T18:20:57.565Z,15.13
2023-02-11T18:23:25.859Z,15.45
2023-02-11T18:25:54.136Z,15.30
2023-02-11T18:28:22.945Z,14.98
2023-02-11T18:30:59.473Z,16.25
2023-02-11T18:33:28.055Z,14.90
2023-02-11T18:35:56.678Z,16.42
2023-02-11T18:38:25.219Z,12.17
2023-02-11T18:40:53.414Z,16.02
2023-02-11T18:43:21.607Z,17.38
2023-02-11T18:45:51.451Z,17.90
2023-02-11T18:48:21.031Z,18.33
2023-02-11T18:50:49.077Z,16.77
2023-02-11T18:53:17.114Z,16.50
2023-02-11T18:55:46.715Z,17.63
2023-02-11T19:00:46.216Z,16.55
2023-02-11T19:03:14.420Z,17.42
2023-02-11T19:05:44.928Z,17.25
2023-02-11T19:08:13.382Z,18.05
2023-02-11T19:10:42.645Z,20.88
2023-02-11T19:13:11.161Z,20.90
2023-02-11T19:15:42.134Z,18.45
2023-02-11T19:18:10.692Z,16.05
2023-02-11T19:20:40.715Z,15.85
2023-02-11T19:23:10.389Z,15.07
2023-02-11T19:28:06.553Z,16.27
2023-02-11T19:30:36.799Z,15.60
2023-02-11T19:33:05.235Z,15.85
2023-02-11T19:35:35.585Z,16.83
2023-02-11T19:38:04.106Z,16.80
2023-02-11T19:40:33.793Z,15.73
2023-02-11T19:45:29.711Z,14.57
2023-02-11T19:47:58.564Z,13.70
2023-02-11T19:50:27.281Z,13.65
2023-02-11T19:52:55.958Z,13.00
2023-02-11T19:55:24.006Z,11.93
2023-02-11T19:57:53.442Z,13.00
2023-02-11T20:00:22.516Z,12.52
2023-02-11T20:02:50.657Z,11.27
2023-02-11T20:05:18.940Z,12.25
2023-02-11T20:07:46.984Z,10.93
2023-02-11T20:10:15.060Z,11.45
2023-02-11T20:12:43.136Z,11.50
2023-02-11T20:15:12.890Z,12.00
2023-02-11T20:17:40.971Z,11.48
2023-02-11T20:20:10.161Z,11.20
2023-02-11T20:22:38.310Z,12.02
2023-02-11T20:25:07.322Z,12.52
2023-02-11T20:27:35.444Z,11.75
2023-02-11T20:30:03.550Z,12.02
2023-02-11T20:32:37.902Z,12.82
2023-02-11T20:35:07.192Z,12.68
2023-02-11T20:37:35.645Z,11.95
2023-02-11T20:40:03.861Z,13.52
2023-02-11T20:42:31.874Z,11.98
2023-02-11T20:44:59.900Z,12.07
2023-02-11T20:47:28.066Z,12.85
2023-02-11T20:49:57.523Z,13.30
2023-02-11T20:52:25.538Z,12.52
2023-02-11T20:54:53.615Z,14.10
2023-02-11T20:57:21.746Z,13.85
2023-02-11T20:59:49.982Z,14.50
2023-02-11T21:02:18.040Z,12.82
2023-02-11T21:04:46.077Z,13.65
2023-02-11T21:07:15.556Z,13.45
2023-02-11T21:09:43.628Z,12.32
2023-02-11T21:12:11.750Z,12.98
2023-02-11T21:14:39.855Z,12.02
2023-02-11T21:17:08.375Z,14.23
2023-02-11T21:19:36.457Z,12.00
2023-02-11T21:22:04.655Z,13.20
2023-02-11T21:24:34.152Z,12.85
2023-02-11T21:27:02.986Z,11.23
2023-02-11T21:29:31.052Z,12.23
2023-02-11T21:31:59.132Z,11.98
2023-02-11T21:34:27.280Z,13.23
2023-02-11T21:36:55.354Z,12.15
2023-02-11T21:39:23.612Z,10.80
2023-02-11T21:41:53.269Z,11.30
2023-02-11T21:44:21.320Z,10.77
2023-02-11T21:46:49.569Z,11.43
2023-02-11T21:49:19.658Z,10.43
2023-02-11T21:51:47.740Z,11.57
2023-02-11T21:54:18.611Z,11.38
2023-02-11T21:56:46.712Z,12.07
2023-02-11T21:59:16.451Z,11.93
2023-02-11T22:01:47.033Z,11.57
2023-02-11T22:04:15.147Z,12.20
2023-02-11T22:06:43.221Z,11.75
2023-02-11T22:09:11.804Z,11.55
2023-02-11T22:11:39.891Z,11.32
2023-02-11T22:14:08.264Z,12.07
2023-02-11T22:16:37.832Z,10.88
2023-02-11T22:21:35.444Z,11.13
2023-02-11T22:24:03.502Z,11.52
2023-02-11T22:26:31.613Z,10.30
2023-02-11T22:28:59.695Z,12.48
2023-02-11T22:31:30.953Z,10.80
2023-02-11T22:34:01.334Z,11.13
2023-02-11T22:36:31.284Z,10.43
2023-02-11T22:39:01.860Z,10.90
2023-02-11T22:41:30.077Z,12.88
2023-02-11T22:43:58.232Z,12.88
2023-02-11T22:46:26.807Z,11.40
2023-02-11T22:48:54.982Z,11.90
2023-02-11T22:51:26.219Z,12.65
2023-02-11T22:53:55.673Z,12.25
2023-02-11T22:56:24.128Z,13.02
2023-02-11T22:58:53.842Z,14.18
2023-02-11T23:01:22.040Z,13.77
2023-02-11T23:03:50.383Z,13.20
2023-02-11T23:06:18.727Z,15.13
2023-02-11T23:08:48.911Z,13.25
2023-02-11T23:11:19.582Z,14.45
2023-02-11T23:13:49.493Z,13.40
2023-02-11T23:16:19.899Z,13.57
2023-02-11T23:18:49.464Z,12.98
2023-02-11T23:23:48.732Z,14.15
2023-02-11T23:26:18.950Z,12.90
2023-02-11T23:28:47.631Z,12.38
2023-02-11T23:31:21.105Z,12.27
2023-02-11T23:33:49.573Z,11.82
2023-02-11T23:36:19.237Z,12.82
2023-02-11T23:38:49.000Z,13.70
2023-02-11T23:41:17.815Z,13.68
2023-02-11T23:43:49.681Z,13.35
2023-02-11T23:46:17.771Z,12.85
2023-02-11T23:48:46.062Z,12.02
2023-02-11T23:51:14.284Z,13.18
2023-02-11T23:53:42.645Z,11.70
2023-02-11T23:56:16.064Z,11.63
2023-02-11T23:58:44.735Z,11.95
